TimeCDT,TemperatureF,Dew PointF,Humidity,Sea Level PressureIn,VisibilityMPH,Wind Direction,Wind SpeedMPH,Gust SpeedMPH,PrecipitationIn,Events,Conditions,WindDirDegrees,DateUTC
12:58 AM,39.9,33.1,77,30.06,10.0,WNW,3.5,-,N/A,,Clear,300,2012-10-30 05:58:00
1:58 AM,37.9,32.0,79,30.05,10.0,WNW,3.5,-,N/A,,Clear,300,2012-10-30 06:58:00
2:58 AM,37.4,32.0,81,30.04,10.0,Calm,Calm,-,N/A,,Clear,0,2012-10-30 07:58:00
3:58 AM,34.0,32.0,92,30.04,10.0,Calm,Calm,-,N/A,,Clear,0,2012-10-30 08:58:00
4:58 AM,36.0,32.0,86,30.05,10.0,WNW,3.5,-,N/A,,Clear,290,2012-10-30 09:58:00
5:58 AM,37.0,32.0,82,30.05,10.0,NW,3.5,-,N/A,,Clear,320,2012-10-30 10:58:00
6:58 AM,34.0,30.9,89,30.05,10.0,Calm,Calm,-,N/A,,Clear,0,2012-10-30 11:58:00
7:58 AM,37.9,32.0,79,30.06,10.0,NW,3.5,-,N/A,,Clear,320,2012-10-30 12:58:00
8:58 AM,45.0,34.0,65,30.06,10.0,WNW,3.5,-,N/A,,Clear,290,2012-10-30 13:58:00
9:58 AM,51.1,32.0,48,30.05,10.0,NNW,6.9,-,N/A,,Clear,340,2012-10-30 14:58:00
10:58 AM,55.0,28.9,37,30.05,10.0,NW,12.7,19.6,N/A,,Clear,320,2012-10-30 15:58:00
11:58 AM,59.0,28.0,31,30.04,10.0,NW,11.5,20.7,N/A,,Clear,320,2012-10-30 16:58:00
12:58 PM,61.0,26.1,26,30.01,10.0,NW,16.1,23.0,N/A,,Clear,320,2012-10-30 17:58:00
1:58 PM,62.1,28.0,28,29.98,10.0,NW,9.2,20.7,N/A,,Clear,310,2012-10-30 18:58:00
2:58 PM,63.0,30.9,30,29.96,10.0,WNW,11.5,19.6,N/A,,Clear,300,2012-10-30 19:58:00
3:58 PM,63.0,32.0,31,29.95,10.0,NW,12.7,18.4,N/A,,Clear,320,2012-10-30 20:58:00
4:58 PM,61.0,33.1,35,29.95,10.0,WNW,10.4,-,N/A,,Clear,290,2012-10-30 21:58:00
5:58 PM,57.0,35.1,44,29.96,10.0,West,3.5,-,N/A,,Clear,280,2012-10-30 22:58:00
6:58 PM,48.9,41.0,74,29.97,10.0,Calm,Calm,-,N/A,,Clear,0,2012-10-30 23:58:00
7:58 PM,46.9,41.0,80,29.98,10.0,SSW,3.5,-,N/A,,Clear,200,2012-10-31 00:58:00
8:58 PM,43.0,39.9,89,29.99,10.0,South,3.5,-,N/A,,Clear,180,2012-10-31 01:58:00
9:58 PM,42.1,39.9,92,29.99,10.0,Calm,Calm,-,N/A,,Clear,0,2012-10-31 02:58:00
10:58 PM,42.8,39.2,87,29.99,10.0,SSW,3.5,-,N/A,,Clear,200,2012-10-31 03:58:00
11:58 PM,41.0,39.0,93,29.99,10.0,South,3.5,-,N/A,,Clear,190,2012-10-31 04:58:00